Time;durP1;ratioP1;P1;durP2;ratioP2;P2;SDS_P1;SDS_P2;PMS_P1;PMS_P2;Temp;Humidity;BMP_temperature;BMP_pressure;BME280_temperature;BME280_humidity;BME280_pressure;Samples;Min_cycle;Max_cycle;Signal;HPM_P1;HPM_P2
2023/03/14 00:00:55;;;;;;;7.05;1.70;;;;;;;3.39;83.48;98601.81;5061512;28;20402;-45
2023/03/14 00:03:22;;;;;;;4.85;1.70;;;;;;;3.36;83.66;98613.47;5069320;28;20493;-47
2023/03/14 00:05:49;;;;;;;4.93;1.73;;;;;;;3.38;83.90;98618.59;5069274;28;20048;-45
2023/03/14 00:08:16;;;;;;;4.55;1.90;;;;;;;3.36;83.79;98629.09;5069837;28;20040;-45
2023/03/14 00:10:42;;;;;;;5.45;2.00;;;;;;;3.32;83.67;98642.66;5069383;28;20472;-45
2023/03/14 00:13:09;;;;;;;7.70;1.48;;;;;;;3.30;83.85;98649.63;5070183;28;20680;-44
2023/03/14 00:15:36;;;;;;;11.45;2.17;;;;;;;3.30;84.01;98646.88;5069217;28;20048;-44
2023/03/14 00:18:02;;;;;;;5.80;1.58;;;;;;;3.29;84.29;98648.81;5069447;28;20051;-45
2023/03/14 00:20:29;;;;;;;6.38;1.52;;;;;;;3.27;84.09;98666.72;5068907;28;20157;-46
2023/03/14 00:22:56;;;;;;;5.35;1.65;;;;;;;3.23;84.12;98665.84;5069204;28;20072;-46
2023/03/14 00:25:22;;;;;;;5.07;1.80;;;;;;;3.19;84.26;98665.72;5069183;28;20040;-45
2023/03/14 00:27:51;;;;;;;6.30;2.40;;;;;;;3.18;84.28;98669.59;5069213;28;20059;-45
2023/03/14 00:30:18;;;;;;;7.85;2.33;;;;;;;3.22;84.47;98669.69;5068476;28;20043;-44
2023/03/14 00:32:45;;;;;;;9.13;1.92;;;;;;;3.18;84.75;98679.75;5051075;28;20395;-44
2023/03/14 00:35:11;;;;;;;10.05;2.22;;;;;;;3.16;84.88;98682.81;5067534;28;20123;-45
2023/03/14 00:37:38;;;;;;;10.63;2.05;;;;;;;3.15;84.67;98686.69;5068984;28;20032;-44
2023/03/14 00:40:07;;;;;;;7.80;1.83;;;;;;;3.15;84.70;98697.63;5069002;28;20045;-44
2023/03/14 00:42:34;;;;;;;7.20;2.75;;;;;;;3.13;85.00;98699.09;5068399;28;20534;-50
2023/03/14 00:45:01;;;;;;;7.75;1.90;;;;;;;3.11;85.13;98706.88;5057020;28;20045;-45
2023/03/14 00:47:27;;;;;;;3.80;2.47;;;;;;;3.10;85.12;98710.75;5065353;28;20487;-52
2023/03/14 00:49:54;;;;;;;6.47;1.92;;;;;;;3.16;85.38;98714.81;5068794;28;20057;-44
2023/03/14 00:52:21;;;;;;;2.30;1.42;;;;;;;3.22;85.66;98719.72;5068843;28;20044;-44
2023/03/14 00:54:47;;;;;;;5.72;1.95;;;;;;;3.30;85.77;98732.47;5068418;28;20045;-44
2023/03/14 00:57:14;;;;;;;4.50;2.33;;;;;;;3.35;85.43;98739.63;5068429;28;20050;-47
2023/03/14 00:59:41;;;;;;;6.75;2.42;;;;;;;3.40;85.88;98725.69;5068486;28;20413;-44
2023/03/14 01:02:07;;;;;;;8.60;2.42;;;;;;;3.38;85.96;98755.34;5068735;28;20056;-46
2023/03/14 01:04:34;;;;;;;9.75;1.73;;;;;;;3.40;85.88;98758.53;5081578;28;20135;-51
2023/03/14 01:07:01;;;;;;;8.52;2.25;;;;;;;3.39;86.19;98756.94;5068697;28;20094;-45
2023/03/14 01:09:28;;;;;;;6.97;1.90;;;;;;;3.42;85.96;98767.97;5068316;28;20433;-45
2023/03/14 01:11:54;;;;;;;10.20;2.00;;;;;;;3.46;85.93;98762.63;5050293;28;20398;-45
2023/03/14 01:14:21;;;;;;;8.48;2.08;;;;;;;3.44;86.32;98775.84;5057957;28;20052;-45
2023/03/14 01:16:47;;;;;;;5.30;1.77;;;;;;;3.47;86.52;98780.59;5054422;28;20047;-45
2023/03/14 01:19:14;;;;;;;6.07;1.85;;;;;;;3.47;86.32;98786.06;5057218;28;20041;-45
2023/03/14 01:21:41;;;;;;;5.18;1.50;;;;;;;3.51;86.58;98797.94;5068822;28;20056;-44
2023/03/14 01:24:11;;;;;;;5.30;2.05;;;;;;;3.53;86.40;98798.38;5068258;28;20048;-45
2023/03/14 01:26:38;;;;;;;3.60;1.30;;;;;;;3.54;86.67;98809.00;5068658;28;20131;-44
2023/03/14 01:29:04;;;;;;;5.18;1.52;;;;;;;3.58;86.50;98825.50;5068389;28;20056;-46
2023/03/14 01:31:31;;;;;;;7.05;2.30;;;;;;;3.55;86.62;98823.44;5068339;28;20539;-45
2023/03/14 01:33:58;;;;;;;1.88;1.20;;;;;;;3.54;86.66;98827.34;5068429;28;20559;-45
2023/03/14 01:36:24;;;;;;;7.97;2.50;;;;;;;3.51;86.87;98852.66;5068959;28;20041;-51
2023/03/14 01:38:51;;;;;;;5.93;1.63;;;;;;;3.51;86.86;98867.13;5081362;28;20041;-45
2023/03/14 01:41:21;;;;;;;6.00;1.17;;;;;;;3.53;87.14;98866.78;5077000;28;20097;-44
2023/03/14 01:43:49;;;;;;;3.80;1.33;;;;;;;3.51;87.32;98877.25;5071996;28;20143;-43
2023/03/14 01:46:21;;;;;;;8.05;2.10;;;;;;;3.43;87.81;98905.53;5071567;28;20037;-50
2023/03/14 01:48:54;;;;;;;3.70;1.42;;;;;;;3.40;87.83;98906.22;5072207;28;20382;-45
2023/03/14 01:51:24;;;;;;;4.88;1.17;;;;;;;3.33;87.96;98916.94;5071821;28;20044;-43
2023/03/14 01:53:54;;;;;;;6.25;1.58;;;;;;;3.31;87.68;98919.22;5072482;28;20072;-47
2023/03/14 01:56:22;;;;;;;6.53;1.75;;;;;;;3.26;88.31;98933.09;5072251;28;20124;-51
2023/03/14 01:58:52;;;;;;;8.35;1.10;;;;;;;3.23;88.48;98939.28;5054013;28;20490;-44
2023/03/14 02:01:21;;;;;;;4.20;0.98;;;;;;;3.17;88.66;98946.09;5071651;28;20059;-44
2023/03/14 02:03:54;;;;;;;0.73;0.50;;;;;;;3.10;88.65;98952.13;5071702;28;20570;-44
2023/03/14 02:06:28;;;;;;;2.22;1.00;;;;;;;3.03;88.90;98966.34;5071506;28;20462;-48
2023/03/14 02:08:56;;;;;;;3.00;0.70;;;;;;;2.95;89.14;98963.72;5071613;28;20057;-44
2023/03/14 02:11:28;;;;;;;4.15;1.08;;;;;;;2.93;88.96;98977.72;5054012;28;20524;-44
2023/03/14 02:13:57;;;;;;;4.32;1.15;;;;;;;2.91;89.32;98988.19;5067008;28;20064;-48
2023/03/14 02:16:24;;;;;;;4.60;1.42;;;;;;;2.84;89.50;98985.19;5071659;28;20398;-48
2023/03/14 02:18:51;;;;;;;5.28;1.40;;;;;;;2.82;89.66;98990.22;5071103;28;20044;-43
2023/03/14 02:22:02;;;;;;;2.30;1.10;;;;;;;2.77;89.74;98998.63;5071226;28;20402;-44
2023/03/14 02:24:46;;;;;;;3.15;1.05;;;;;;;2.74;89.79;98998.50;5020732;28;20063;-45
2023/03/14 02:27:15;;;;;;;4.53;1.60;;;;;;;2.70;89.92;99014.75;5068830;28;20102;-44
2023/03/14 02:29:56;;;;;;;3.28;1.27;;;;;;;2.74;90.16;99026.63;5053868;28;20044;-44
2023/03/14 02:32:24;;;;;;;3.65;1.45;;;;;;;2.73;90.23;99026.94;5071529;28;20040;-44
2023/03/14 02:35:00;;;;;;;1.80;1.50;;;;;;;2.71;90.55;99035.47;5070932;28;20045;-44
2023/03/14 02:37:45;;;;;;;1.17;1.05;;;;;;;2.71;90.60;99046.41;5071033;28;20045;-45
2023/03/14 02:40:12;;;;;;;2.40;1.08;;;;;;;2.72;90.71;99050.75;5070773;28;20055;-44
2023/03/14 02:42:39;;;;;;;1.75;1.55;;;;;;;2.70;90.69;99063.91;5071248;28;20044;-47
2023/03/14 02:45:08;;;;;;;1.00;0.82;;;;;;;2.65;90.77;99066.09;5071157;28;20398;-44
2023/03/14 02:47:41;;;;;;;1.83;0.80;;;;;;;2.65;90.73;99060.63;5071088;28;20047;-47
2023/03/14 02:50:17;;;;;;;2.22;0.80;;;;;;;2.68;91.17;99033.41;5070712;28;20052;-44
2023/03/14 02:52:44;;;;;;;1.63;1.52;;;;;;;2.76;91.05;99034.47;5069990;28;20044;-44
2023/03/14 02:55:10;;;;;;;0.70;0.68;;;;;;;2.76;91.06;99009.88;5053356;28;20047;-43
2023/03/14 02:57:37;;;;;;;1.13;0.70;;;;;;;2.84;91.57;99019.94;5070635;28;20490;-46
2023/03/14 03:00:05;;;;;;;2.20;0.88;;;;;;;2.88;91.13;99038.06;5070774;28;20041;-44
2023/03/14 03:02:32;;;;;;;3.28;0.88;;;;;;;2.93;91.64;99054.25;5915713;22;20374;-43
2023/03/14 03:04:59;;;;;;;2.28;0.65;;;;;;;2.93;91.28;99043.31;6117327;23;20028;-43
2023/03/14 03:07:25;;;;;;;3.00;1.08;;;;;;;2.96;91.35;99078.19;6117703;23;20032;-43
2023/03/14 03:09:52;;;;;;;2.33;0.70;;;;;;;2.98;91.53;99084.13;6117350;23;20487;-43
2023/03/14 03:12:18;;;;;;;2.08;0.57;;;;;;;2.99;91.71;99098.59;6114093;23;20023;-44
2023/03/14 03:14:45;;;;;;;1.92;0.80;;;;;;;2.97;91.63;99104.38;6115456;23;20055;-44
2023/03/14 03:17:12;;;;;;;1.60;0.90;;;;;;;2.95;91.89;99109.38;6118382;23;20036;-42
2023/03/14 03:19:38;;;;;;;2.28;0.75;;;;;;;2.92;91.77;99106.50;6115508;23;20427;-42
2023/03/14 03:22:05;;;;;;;1.50;0.52;;;;;;;2.90;92.18;99120.53;6116807;23;20696;-46
2023/03/14 03:24:32;;;;;;;0.90;0.60;;;;;;;2.92;92.08;99128.38;6117622;23;20027;-42
2023/03/14 03:26:58;;;;;;;1.10;0.80;;;;;;;2.96;92.09;99123.84;6117560;23;20476;-44
2023/03/14 03:29:25;;;;;;;1.85;0.68;;;;;;;2.99;92.47;99145.06;6091434;23;20043;-42
2023/03/14 03:31:52;;;;;;;1.27;0.60;;;;;;;2.95;92.44;99157.78;6086964;23;20031;-42
2023/03/14 03:34:19;;;;;;;3.80;0.93;;;;;;;2.95;92.52;99155.84;6109984;23;20085;-44
2023/03/14 03:36:46;;;;;;;1.48;0.95;;;;;;;2.96;92.38;99173.88;6105081;23;20038;-42
2023/03/14 03:39:12;;;;;;;1.52;1.00;;;;;;;2.95;92.64;99188.66;6117308;23;20111;-43
2023/03/14 03:41:39;;;;;;;3.25;1.40;;;;;;;2.99;92.94;99195.03;6112586;23;20090;-42
2023/03/14 03:44:06;;;;;;;4.03;0.80;;;;;;;2.97;92.88;99219.19;6116967;23;20503;-42
2023/03/14 03:46:32;;;;;;;3.15;2.08;;;;;;;2.94;92.65;99233.50;6115955;23;20476;-42
2023/03/14 03:49:00;;;;;;;8.63;1.33;;;;;;;2.88;92.87;99231.31;6117264;23;20031;-42
2023/03/14 03:51:27;;;;;;;2.95;0.90;;;;;;;2.85;92.77;99213.66;6117293;23;20046;-42
2023/03/14 03:53:53;;;;;;;2.88;1.08;;;;;;;2.85;92.72;99224.59;6114018;23;20039;-42
2023/03/14 03:56:20;;;;;;;4.32;1.55;;;;;;;2.81;92.76;99240.03;6117645;23;20035;-46
2023/03/14 03:58:47;;;;;;;1.67;0.70;;;;;;;2.75;93.15;99238.63;6117251;23;20094;-42
2023/03/14 04:01:13;;;;;;;8.65;1.30;;;;;;;2.73;92.91;99254.53;6116611;23;20039;-42
2023/03/14 04:03:40;;;;;;;1.30;1.05;;;;;;;2.73;93.45;99264.66;6117016;23;20084;-47
2023/03/14 04:06:10;;;;;;;4.32;1.30;;;;;;;2.72;93.10;99268.53;6115768;23;20028;-42
2023/03/14 04:08:38;;;;;;;6.85;1.10;;;;;;;2.70;93.13;99266.13;6115287;23;20380;-42
2023/03/14 04:11:05;;;;;;;6.38;2.17;;;;;;;2.69;93.39;99286.38;6110471;23;20495;-42
2023/03/14 04:13:32;;;;;;;4.03;0.95;;;;;;;2.69;93.58;99301.97;6121359;23;20337;-42
2023/03/14 04:15:59;;;;;;;4.38;0.90;;;;;;;2.68;93.68;99317.56;6112545;23;20028;-43
2023/03/14 04:18:26;;;;;;;1.88;0.85;;;;;;;2.65;93.72;99322.91;6120524;23;20072;-43
2023/03/14 04:20:54;;;;;;;1.88;0.82;;;;;;;2.61;93.41;99339.13;6115922;23;20031;-44
2023/03/14 04:23:24;;;;;;;3.67;0.82;;;;;;;2.59;93.71;99352.31;6122279;23;20027;-46
2023/03/14 04:25:51;;;;;;;4.60;0.80;;;;;;;2.58;93.69;99349.91;6091968;23;20050;-47
2023/03/14 04:28:18;;;;;;;5.30;1.20;;;;;;;2.56;93.79;99347.50;6100715;23;20085;-42
2023/03/14 04:30:45;;;;;;;3.33;0.95;;;;;;;2.51;93.90;99361.34;6117250;23;20054;-43
2023/03/14 04:33:16;;;;;;;5.03;0.88;;;;;;;2.52;93.68;99359.41;6117238;23;20089;-42
2023/03/14 04:35:44;;;;;;;0.95;0.45;;;;;;;2.46;93.80;99369.72;6117300;23;20027;-43
2023/03/14 04:38:12;;;;;;;2.88;0.80;;;;;;;2.42;93.54;99379.69;6116776;23;20065;-47
2023/03/14 04:40:42;;;;;;;7.07;1.58;;;;;;;2.39;93.77;99388.50;6117058;23;20106;-42
2023/03/14 04:43:11;;;;;;;2.47;1.13;;;;;;;2.33;93.95;99392.56;6116908;23;20042;-42
2023/03/14 04:45:41;;;;;;;2.17;1.02;;;;;;;2.30;93.84;99402.19;6089752;23;20043;-43
2023/03/14 04:48:08;;;;;;;1.15;0.73;;;;;;;2.29;94.08;99405.25;6088254;23;20042;-42
2023/03/14 04:50:34;;;;;;;11.27;1.13;;;;;;;2.27;94.02;99421.16;6088447;23;20039;-42
2023/03/14 04:53:01;;;;;;;5.93;1.58;;;;;;;2.26;93.96;99433.19;6087948;23;20529;-43
2023/03/14 04:55:28;;;;;;;4.10;0.90;;;;;;;2.28;93.97;99423.53;6088103;23;20040;-42
2023/03/14 04:57:54;;;;;;;4.70;0.75;;;;;;;2.27;94.05;99432.06;6088181;23;20381;-43
2023/03/14 05:00:21;;;;;;;4.35;1.67;;;;;;;2.24;93.77;99443.63;6084099;23;20024;-43
2023/03/14 05:02:48;;;;;;;3.65;1.23;;;;;;;2.26;93.79;99444.91;6119775;23;20031;-45
2023/03/14 05:05:15;;;;;;;5.43;0.90;;;;;;;2.26;93.73;99452.31;6115728;23;20027;-44
2023/03/14 05:07:43;;;;;;;1.30;0.52;;;;;;;2.27;93.92;99454.72;6120485;23;20031;-44
2023/03/14 05:10:10;;;;;;;2.75;0.68;;;;;;;2.27;93.96;99453.91;6112695;23;20396;-42
2023/03/14 05:12:37;;;;;;;3.20;0.90;;;;;;;2.24;93.56;99460.81;6121380;23;20051;-42
2023/03/14 05:15:04;;;;;;;1.02;0.70;;;;;;;2.22;93.82;99479.47;6115821;23;20028;-42
2023/03/14 05:17:32;;;;;;;5.47;0.65;;;;;;;2.15;93.64;99497.41;6119145;23;20378;-42
2023/03/14 05:19:59;;;;;;;3.17;1.55;;;;;;;2.10;93.61;99497.59;6102700;23;20107;-46
2023/03/14 05:22:26;;;;;;;5.32;0.95;;;;;;;2.07;93.33;99509.13;6118136;23;20514;-47
2023/03/14 05:24:56;;;;;;;1.77;0.60;;;;;;;2.02;93.66;99501.91;6117381;23;20038;-43
2023/03/14 05:27:23;;;;;;;1.77;0.50;;;;;;;1.98;93.56;99514.59;6115868;23;20031;-43
2023/03/14 05:29:49;;;;;;;4.82;0.80;;;;;;;1.94;93.51;99516.34;6119308;23;20036;-42
2023/03/14 05:32:16;;;;;;;1.83;0.70;;;;;;;1.91;93.83;99518.94;6119583;23;20066;-42
2023/03/14 05:34:43;;;;;;;2.10;0.60;;;;;;;1.88;93.37;99514.09;6090425;23;20035;-50
2023/03/14 05:37:09;;;;;;;3.25;0.70;;;;;;;1.85;93.60;99521.78;6115314;23;20042;-45
2023/03/14 05:39:36;;;;;;;2.70;1.50;;;;;;;1.82;93.56;99529.81;6120823;23;20035;-49
2023/03/14 05:42:03;;;;;;;2.55;0.70;;;;;;;1.79;93.39;99531.25;6112915;23;20027;-43
2023/03/14 05:44:30;;;;;;;2.63;1.88;;;;;;;1.76;93.23;99531.88;6106365;23;20501;-42
2023/03/14 05:46:57;;;;;;;1.70;0.68;;;;;;;1.75;93.42;99541.19;6109502;23;20031;-42
2023/03/14 05:49:24;;;;;;;3.47;1.90;;;;;;;1.74;93.27;99534.13;6111928;23;20117;-42
2023/03/14 05:51:51;;;;;;;5.38;0.80;;;;;;;1.74;93.40;99545.03;6109207;23;20036;-45
2023/03/14 05:54:17;;;;;;;3.85;1.08;;;;;;;1.70;93.03;99551.44;6116026;23;20077;-42
2023/03/14 05:56:44;;;;;;;3.95;0.85;;;;;;;1.68;93.31;99559.94;6108383;23;20031;-47
2023/03/14 05:59:12;;;;;;;2.25;0.70;;;;;;;1.65;93.19;99557.03;6114847;23;20148;-42
2023/03/14 06:01:38;;;;;;;1.20;0.60;;;;;;;1.59;92.98;99567.28;6112108;23;20554;-44
2023/03/14 06:04:05;;;;;;;5.53;1.17;;;;;;;1.54;93.04;99572.06;6102230;23;20046;-42
2023/03/14 06:06:32;;;;;;;3.20;0.95;;;;;;;1.52;93.51;99586.03;6092585;23;20039;-42
2023/03/14 06:08:58;;;;;;;3.65;0.80;;;;;;;1.49;93.17;99586.63;6099399;23;20500;-47
2023/03/14 06:11:25;;;;;;;2.63;0.95;;;;;;;1.48;93.61;99590.50;6056729;23;20524;-45
2023/03/14 06:13:52;;;;;;;1.50;0.73;;;;;;;1.47;93.44;99598.97;6097520;23;20478;-45
2023/03/14 06:16:20;;;;;;;4.85;0.90;;;;;;;1.43;93.53;99601.53;6080201;23;20032;-42
2023/03/14 06:18:48;;;;;;;1.70;0.73;;;;;;;1.42;93.18;99602.66;6096912;23;20057;-43
2023/03/14 06:21:15;;;;;;;2.70;0.70;;;;;;;1.44;93.26;99616.78;6096933;23;20032;-44
2023/03/14 06:23:45;;;;;;;4.30;0.95;;;;;;;1.42;93.66;99623.66;6089480;23;20059;-42
2023/03/14 06:26:12;;;;;;;6.75;0.90;;;;;;;1.40;93.31;99631.34;6085470;23;20272;-49
2023/03/14 06:28:38;;;;;;;5.07;0.80;;;;;;;1.36;93.34;99644.78;6105727;23;20042;-44
2023/03/14 06:31:05;;;;;;;4.28;0.90;;;;;;;1.29;93.37;99644.44;6088448;23;20037;-43
2023/03/14 06:33:32;;;;;;;4.40;0.82;;;;;;;1.30;93.19;99643.31;6063092;23;20410;-51
2023/03/14 06:36:00;;;;;;;2.30;0.63;;;;;;;1.24;93.23;99647.28;6088698;23;20054;-43
2023/03/14 06:38:26;;;;;;;3.50;1.48;;;;;;;1.20;93.26;99651.75;6088160;23;20024;-42
2023/03/14 06:40:53;;;;;;;3.60;1.25;;;;;;;1.18;93.54;99657.50;6086705;23;20035;-43
2023/03/14 06:43:21;;;;;;;5.60;1.00;;;;;;;1.19;93.66;99674.69;6076132;23;20560;-44
2023/03/14 06:45:47;;;;;;;1.98;0.60;;;;;;;1.18;93.55;99673.06;6059414;23;20560;-44
2023/03/14 06:48:14;;;;;;;2.30;0.98;;;;;;;1.14;93.65;99672.06;6059485;23;20111;-43
2023/03/14 06:50:41;;;;;;;3.95;1.13;;;;;;;1.13;93.65;99676.72;6059563;23;20032;-44
2023/03/14 06:53:08;;;;;;;5.25;1.20;;;;;;;1.13;93.67;99681.34;6100127;23;20031;-43
2023/03/14 06:55:35;;;;;;;5.82;1.60;;;;;;;1.13;93.79;99692.25;6110380;23;20085;-42
2023/03/14 06:58:01;;;;;;;2.40;0.80;;;;;;;1.12;93.67;99693.38;6109978;23;20558;-50
2023/03/14 07:00:28;;;;;;;3.05;0.85;;;;;;;1.10;93.74;99695.59;6099626;23;20016;-44
2023/03/14 07:02:55;;;;;;;4.60;0.80;;;;;;;1.09;93.83;99694.78;6112366;23;20397;-43
2023/03/14 07:05:21;;;;;;;2.10;0.95;;;;;;;1.09;93.54;99702.97;6110640;23;20107;-43
2023/03/14 07:07:48;;;;;;;1.98;1.00;;;;;;;1.08;93.59;99716.91;6116366;23;20046;-43
2023/03/14 07:10:15;;;;;;;3.88;0.80;;;;;;;1.08;93.87;99739.53;6114321;23;20032;-43
2023/03/14 07:12:42;;;;;;;1.65;0.85;;;;;;;1.05;93.65;99736.59;6110102;23;20473;-44
2023/03/14 07:15:09;;;;;;;2.78;0.93;;;;;;;1.04;93.80;99741.25;6094088;23;20024;-44
2023/03/14 07:17:44;;;;;;;5.07;0.90;;;;;;;1.07;93.90;99756.19;6092624;23;20028;-44
2023/03/14 07:20:11;;;;;;;6.25;1.45;;;;;;;1.09;94.25;99762.94;6086191;23;20409;-43
2023/03/14 07:22:37;;;;;;;1.42;0.70;;;;;;;1.10;94.37;99770.00;6109110;23;20089;-43
2023/03/14 07:25:05;;;;;;;2.17;1.13;;;;;;;1.11;93.87;99768.09;6107197;23;20626;-43
2023/03/14 07:27:31;;;;;;;3.33;0.70;;;;;;;1.12;94.04;99772.41;6088068;23;20039;-44
2023/03/14 07:29:58;;;;;;;6.07;1.00;;;;;;;1.14;94.30;99775.63;6109487;23;20126;-44
2023/03/14 07:32:25;;;;;;;1.13;0.88;;;;;;;1.15;94.23;99778.06;6108851;23;20124;-44
2023/03/14 07:34:52;;;;;;;2.45;0.70;;;;;;;1.18;93.99;99776.66;6094314;23;20089;-47
2023/03/14 07:37:18;;;;;;;5.72;1.00;;;;;;;1.21;94.08;99789.66;6079135;23;20060;-44
2023/03/14 07:39:45;;;;;;;1.88;0.73;;;;;;;1.20;94.10;99793.50;6106829;23;20130;-44
2023/03/14 07:42:12;;;;;;;3.92;0.90;;;;;;;1.20;94.32;99801.69;6093735;23;20025;-51
2023/03/14 07:44:38;;;;;;;4.05;0.73;;;;;;;1.22;94.47;99805.72;6088526;23;20040;-44
2023/03/14 07:47:05;;;;;;;3.92;1.20;;;;;;;1.23;94.20;99807.34;6087904;23;20432;-44
2023/03/14 07:49:32;;;;;;;2.90;1.60;;;;;;;1.23;94.40;99812.78;6088261;23;20035;-44
2023/03/14 07:51:59;;;;;;;2.40;0.85;;;;;;;1.26;94.59;99833.16;6068545;23;20115;-44
2023/03/14 07:54:26;;;;;;;4.00;1.02;;;;;;;1.33;94.48;99822.66;6083363;23;20024;-44
2023/03/14 07:56:52;;;;;;;4.45;0.80;;;;;;;1.38;94.40;99836.16;6088764;23;20039;-44
2023/03/14 07:59:19;;;;;;;4.72;1.42;;;;;;;1.48;94.70;99835.16;6088206;23;20099;-44
2023/03/14 08:01:46;;;;;;;4.45;1.38;;;;;;;1.55;94.59;99840.97;6091205;23;20478;-43
2023/03/14 08:04:13;;;;;;;3.13;0.98;;;;;;;1.62;94.27;99850.34;6117955;23;20028;-43
2023/03/14 08:06:39;;;;;;;4.75;1.83;;;;;;;1.74;94.43;99864.28;6117294;23;20416;-44
2023/03/14 08:09:06;;;;;;;5.47;1.52;;;;;;;1.82;94.06;99857.25;6067829;23;20069;-43
2023/03/14 08:11:33;;;;;;;5.95;1.13;;;;;;;1.91;93.87;99855.41;6059354;23;20036;-43
2023/03/14 08:14:00;;;;;;;3.47;0.93;;;;;;;1.98;94.27;99876.81;6073181;23;20054;-43
2023/03/14 08:16:26;;;;;;;6.65;1.30;;;;;;;2.02;94.08;99866.88;6063736;23;20058;-48
2023/03/14 08:18:53;;;;;;;8.80;1.52;;;;;;;2.05;94.10;99877.19;6079843;23;20032;-46
2023/03/14 08:21:20;;;;;;;5.78;1.17;;;;;;;2.07;94.03;99880.41;6064540;23;20467;-43
2023/03/14 08:23:46;;;;;;;9.23;1.25;;;;;;;2.07;94.22;99877.66;6091959;23;20058;-43
2023/03/14 08:26:13;;;;;;;2.15;0.77;;;;;;;2.10;94.04;99882.50;6080520;23;20386;-45
2023/03/14 08:28:40;;;;;;;3.58;1.17;;;;;;;2.11;93.83;99875.94;6064543;23;20381;-42
2023/03/14 08:31:06;;;;;;;2.33;0.90;;;;;;;2.11;93.97;99887.69;6079029;23;20135;-42
2023/03/14 08:33:33;;;;;;;3.05;1.77;;;;;;;2.13;93.94;99885.44;6069916;23;20028;-43
2023/03/14 08:36:01;;;;;;;5.20;1.05;;;;;;;2.13;94.06;99896.34;6098708;23;20036;-43
2023/03/14 08:38:28;;;;;;;6.18;1.48;;;;;;;2.16;93.98;99900.38;6053027;23;20040;-42
2023/03/14 08:40:59;;;;;;;2.97;0.95;;;;;;;2.17;94.17;99902.78;6087393;23;20138;-42
2023/03/14 08:43:27;;;;;;;4.30;1.20;;;;;;;2.14;94.27;99917.09;6066065;23;20082;-43
2023/03/14 08:45:57;;;;;;;5.57;1.15;;;;;;;2.12;94.29;99922.03;6065935;23;20062;-44
2023/03/14 08:48:24;;;;;;;1.95;1.08;;;;;;;2.13;94.35;99918.19;6071789;23;20053;-45
2023/03/14 08:50:51;;;;;;;6.82;1.30;;;;;;;2.16;94.56;99922.22;6081075;23;20043;-50
2023/03/14 08:53:18;;;;;;;4.22;1.33;;;;;;;2.21;94.56;99924.84;6080941;23;20408;-42
2023/03/14 08:55:45;;;;;;;5.30;1.55;;;;;;;2.25;94.37;99932.09;6073257;23;20032;-41
2023/03/14 08:58:12;;;;;;;6.45;1.40;;;;;;;2.30;94.51;99933.91;6071336;23;20028;-42
2023/03/14 09:00:39;;;;;;;5.47;1.35;;;;;;;2.33;94.72;99939.53;6048745;23;20042;-45
2023/03/14 09:03:05;;;;;;;8.75;2.17;;;;;;;2.37;94.25;99940.56;6112849;23;20051;-43
2023/03/14 09:05:34;;;;;;;5.70;1.80;;;;;;;2.45;94.62;99948.00;6121270;23;20103;-44
2023/03/14 09:08:01;;;;;;;7.75;1.10;;;;;;;2.51;94.25;99943.22;6114600;23;20102;-44
2023/03/14 09:10:27;;;;;;;4.45;1.20;;;;;;;2.54;94.15;99950.81;6118888;23;20032;-44
2023/03/14 09:12:54;;;;;;;3.45;1.35;;;;;;;2.58;94.29;99943.59;6089673;23;20039;-45
2023/03/14 09:15:21;;;;;;;4.88;1.20;;;;;;;2.62;94.34;99944.56;6118401;23;20031;-48
2023/03/14 09:17:48;;;;;;;9.23;1.92;;;;;;;2.73;94.56;99937.72;6120686;23;20379;-47
2023/03/14 09:20:15;;;;;;;7.22;1.55;;;;;;;2.84;94.61;99939.06;6113359;23;20036;-44
2023/03/14 09:22:42;;;;;;;3.45;1.10;;;;;;;2.91;94.90;99928.50;6125172;23;20023;-45
2023/03/14 09:25:10;;;;;;;6.20;2.10;;;;;;;3.02;95.34;99935.31;6115356;23;20042;-44
2023/03/14 09:27:37;;;;;;;10.40;1.42;;;;;;;3.12;95.78;99936.16;6119145;23;20031;-44
2023/03/14 09:30:04;;;;;;;7.75;1.95;;;;;;;3.20;96.45;99935.38;6119169;23;20031;-46
2023/03/14 09:32:31;;;;;;;5.47;1.73;;;;;;;3.30;97.16;99948.78;6092931;23;20023;-45
2023/03/14 09:34:58;;;;;;;8.25;1.20;;;;;;;3.46;98.74;99942.56;6107735;23;20048;-44
2023/03/14 09:37:25;;;;;;;8.65;2.55;;;;;;;3.61;99.61;99946.78;6119487;23;20031;-44
2023/03/14 09:39:52;;;;;;;5.75;1.60;;;;;;;3.75;100.00;99950.19;6101055;23;20085;-44
2023/03/14 09:42:22;;;;;;;10.98;1.35;;;;;;;4.02;100.00;99955.41;6063509;23;20044;-49
2023/03/14 09:44:56;;;;;;;5.00;1.50;;;;;;;4.35;100.00;99954.91;6114227;23;20031;-46
2023/03/14 09:47:24;;;;;;;10.63;1.85;;;;;;;4.74;100.00;99969.19;6111494;23;20028;-42
2023/03/14 09:49:52;;;;;;;6.97;2.03;;;;;;;5.16;100.00;99980.41;6106783;23;20047;-44
2023/03/14 09:52:23;;;;;;;6.70;1.23;;;;;;;5.66;100.00;99978.59;6109839;23;20389;-50
2023/03/14 09:55:05;;;;;;;5.28;1.10;;;;;;;6.23;100.00;99981.63;6107867;23;20059;-43
2023/03/14 09:57:35;;;;;;;4.38;1.55;;;;;;;6.69;100.00;99994.38;6108631;23;20536;-45
2023/03/14 10:00:13;;;;;;;4.18;1.27;;;;;;;7.25;100.00;99992.81;6086554;23;20032;-43
2023/03/14 10:02:45;;;;;;;5.25;1.33;;;;;;;7.90;100.00;99989.88;6111901;23;20144;-46
2023/03/14 10:05:18;;;;;;;5.07;1.52;;;;;;;8.51;97.95;100006.34;6112749;23;20618;-47
2023/03/14 10:07:58;;;;;;;3.55;1.00;;;;;;;9.18;95.15;100011.81;6111347;23;20046;-42
2023/03/14 10:10:26;;;;;;;8.57;1.50;;;;;;;9.75;91.99;100013.25;6112051;23;20465;-42
2023/03/14 10:13:13;;;;;;;8.48;1.48;;;;;;;10.23;89.59;100012.06;6060575;23;20040;-47
2023/03/14 10:15:40;;;;;;;4.22;1.20;;;;;;;10.76;85.80;100027.06;6112728;23;20377;-43
2023/03/14 10:18:15;;;;;;;5.13;1.30;;;;;;;11.15;84.46;100039.75;6111323;23;20046;-42
2023/03/14 10:20:44;;;;;;;10.30;2.30;;;;;;;11.59;81.86;100046.53;6089513;23;20027;-43
2023/03/14 10:23:11;;;;;;;9.15;1.60;;;;;;;11.58;78.99;100044.94;6112842;23;20521;-50
2023/03/14 10:25:41;;;;;;;9.52;1.50;;;;;;;11.65;78.04;100049.78;6110734;23;20035;-43
2023/03/14 10:28:23;;;;;;;4.22;1.27;;;;;;;10.81;78.12;100044.19;6109923;23;20027;-43
2023/03/14 10:30:50;;;;;;;;;;;;;;;9.77;78.14;100044.09;6108530;23;20036;-43
2023/03/14 10:33:17;;;;;;;6.20;2.03;;;;;;;8.80;78.47;100036.38;6112022;23;20470;-42
2023/03/14 10:35:44;;;;;;;6.05;1.50;;;;;;;9.04;79.77;100032.69;6105324;23;20066;-42
2023/03/14 10:38:16;;;;;;;6.97;1.75;;;;;;;9.31;78.19;100031.06;6080939;23;20033;-43
2023/03/14 10:40:52;;;;;;;;;;;;;;;9.37;77.13;100040.72;6112421;23;20039;-42
2023/03/14 10:43:26;;;;;;;4.93;1.10;;;;;;;8.91;75.37;100040.25;6116561;23;19922;-42
2023/03/14 10:45:58;;;;;;;3.05;1.30;;;;;;;8.32;75.77;100045.56;6112923;23;20028;-42
2023/03/14 10:48:34;;;;;;;8.02;1.27;;;;;;;8.02;76.19;100051.66;6121452;23;20138;-42
2023/03/14 10:51:17;;;;;;;3.13;1.20;;;;;;;7.73;76.26;100033.41;6114513;23;20023;-42
2023/03/14 10:53:55;;;;;;;7.28;1.17;;;;;;;7.32;76.25;100045.38;6121809;23;20107;-42
2023/03/14 10:56:24;;;;;;;3.40;1.02;;;;;;;7.12;76.83;100052.53;6117217;23;20553;-43
2023/03/14 10:58:55;;;;;;;7.28;1.67;;;;;;;7.00;76.72;100049.75;6121251;23;20354;-43
2023/03/14 11:01:59;;;;;;;12.02;1.67;;;;;;;7.07;76.79;100049.97;6114899;23;20062;-48
2023/03/14 11:04:26;;;;;;;3.90;2.03;;;;;;;7.31;75.95;100052.81;6109187;23;20023;-42
2023/03/14 11:06:55;;;;;;;4.45;1.08;;;;;;;7.92;74.24;100042.69;6088704;23;20035;-42
2023/03/14 11:10:03;;;;;;;4.50;1.35;;;;;;;8.91;71.14;100054.03;6101080;23;20035;-42
2023/03/14 11:12:41;;;;;;;7.28;1.52;;;;;;;9.24;69.52;100055.75;6096561;23;20038;-42
2023/03/14 11:15:23;;;;;;;4.25;0.98;;;;;;;9.21;69.48;100060.00;6106438;23;20024;-43
2023/03/14 11:18:21;;;;;;;2.30;0.65;;;;;;;9.05;70.21;100057.19;6073424;23;20024;-42
2023/03/14 11:21:03;;;;;;;1.63;0.80;;;;;;;8.70;70.77;100056.19;6050070;23;20553;-42
2023/03/14 11:23:46;;;;;;;2.83;0.80;;;;;;;8.24;72.26;100060.25;6112849;23;20032;-42
2023/03/14 11:26:25;;;;;;;9.43;1.83;;;;;;;7.94;73.23;100056.13;6103557;23;20385;-47
2023/03/14 11:28:58;;;;;;;4.53;1.55;;;;;;;7.72;74.08;100051.06;6112351;23;20031;-42
2023/03/14 11:31:33;;;;;;;9.52;1.52;;;;;;;7.43;74.18;100048.50;6107065;23;20665;-50
2023/03/14 11:34:18;;;;;;;4.07;1.33;;;;;;;7.21;74.66;100049.69;6101714;23;20032;-43
2023/03/14 11:36:48;;;;;;;1.80;0.57;;;;;;;7.08;75.05;100040.59;6109646;23;20028;-42
2023/03/14 11:39:17;;;;;;;5.30;0.50;;;;;;;6.98;75.23;100043.78;6078289;23;20027;-43
2023/03/14 11:41:47;;;;;;;3.00;0.75;;;;;;;6.95;75.28;100038.94;6095031;23;20040;-49
2023/03/14 11:44:24;;;;;;;4.47;0.63;;;;;;;6.99;75.34;100053.63;6098098;23;20470;-42
2023/03/14 11:46:57;;;;;;;4.38;0.70;;;;;;;6.96;75.45;100053.50;6102159;23;20023;-42
2023/03/14 11:49:45;;;;;;;2.92;0.60;;;;;;;6.90;75.00;100055.66;6078899;23;20028;-44